Time;durP1;ratioP1;P1;durP2;ratioP2;P2;SDS_P1;SDS_P2;PMS_P1;PMS_P2;Temp;Humidity;BMP_temperature;BMP_pressure;BME280_temperature;BME280_humidity;BME280_pressure;Samples;Min_cycle;Max_cycle;Signal;HPM_P1;HPM_P2
2023/09/01 00:01:06;;;;;;;2.05;1.70;;;;;;;13.81;80.86;100172.69;2092494;28;20037;-72
2023/09/01 00:02:24;;;;;;;3.83;2.00;;;;;;;13.81;81.23;100164.56;2076148;28;20070;-72
2023/09/01 00:03:35;;;;;;;2.60;1.73;;;;;;;13.80;80.99;100165.66;2063552;28;20027;-72
2023/09/01 00:04:37;;;;;;;3.03;1.88;;;;;;;13.80;81.03;100169.16;2069571;28;20047;-72
2023/09/01 00:05:41;;;;;;;3.38;1.80;;;;;;;13.79;80.76;100172.97;2084261;28;20073;-72
2023/09/01 00:06:44;;;;;;;2.47;1.77;;;;;;;13.80;80.99;100165.66;2076127;28;20038;-72
2023/09/01 00:07:46;;;;;;;2.05;1.80;;;;;;;13.79;80.92;100174.88;2076669;28;20354;-72
2023/09/01 00:08:48;;;;;;;2.78;2.00;;;;;;;13.79;80.92;100164.09;2073187;28;20077;-72
2023/09/01 00:09:51;;;;;;;2.53;1.60;;;;;;;13.76;80.92;100162.00;2075949;28;20031;-72
2023/09/01 00:10:53;;;;;;;3.45;1.90;;;;;;;13.77;80.87;100160.88;2084144;28;20737;-71
2023/09/01 00:11:54;;;;;;;2.45;1.75;;;;;;;13.77;80.74;100164.38;2067946;28;20034;-72
2023/09/01 00:12:57;;;;;;;3.58;1.60;;;;;;;13.79;80.94;100166.78;2067863;28;20043;-72
2023/09/01 00:13:58;;;;;;;3.67;1.80;;;;;;;13.79;80.77;100164.09;2068097;28;20889;-71
2023/09/01 00:15:03;;;;;;;6.40;1.77;;;;;;;13.78;80.73;100165.19;2068129;28;20122;-72
2023/09/01 00:16:08;;;;;;;3.13;1.90;;;;;;;13.78;80.45;100170.59;2076598;28;20038;-72
2023/09/01 00:17:12;;;;;;;2.97;1.65;;;;;;;13.76;80.55;100162.78;2084409;28;20046;-71
2023/09/01 00:18:16;;;;;;;2.72;1.80;;;;;;;13.77;80.44;100168.97;2084342;28;20038;-72
2023/09/01 00:19:23;;;;;;;2.55;1.52;;;;;;;13.76;80.31;100167.41;2077039;28;20074;-72
2023/09/01 00:20:34;;;;;;;2.60;1.70;;;;;;;13.73;80.22;100168.81;2084354;28;20044;-72
2023/09/01 00:21:37;;;;;;;4.07;1.70;;;;;;;13.73;80.38;100162.63;2076726;28;20034;-72
2023/09/01 00:22:39;;;;;;;2.88;1.70;;;;;;;13.73;80.26;100170.72;2076190;28;20758;-72
2023/09/01 00:23:42;;;;;;;2.55;1.95;;;;;;;13.71;80.23;100164.81;2075963;28;20169;-71
2023/09/01 00:24:50;;;;;;;3.55;1.60;;;;;;;13.70;80.36;100164.03;2084121;28;20034;-71
2023/09/01 00:25:56;;;;;;;2.58;1.58;;;;;;;13.71;80.38;100170.22;2084071;28;20076;-72
2023/09/01 00:26:58;;;;;;;4.03;1.60;;;;;;;13.70;80.46;100168.63;2076810;28;20038;-72
2023/09/01 00:28:07;;;;;;;2.15;1.58;;;;;;;13.68;80.39;100168.94;2076753;28;20042;-71
2023/09/01 00:29:09;;;;;;;3.30;1.70;;;;;;;13.68;80.17;100175.16;2085064;28;20038;-72
2023/09/01 00:30:12;;;;;;;4.47;2.50;;;;;;;13.68;80.63;100168.94;2083313;28;20034;-72
2023/09/01 00:31:16;;;;;;;3.47;2.22;;;;;;;13.67;80.44;100172.75;2075951;28;20773;-72
2023/09/01 00:32:17;;;;;;;3.88;1.60;;;;;;;13.65;80.30;100170.38;2092387;28;20037;-72
2023/09/01 00:33:25;;;;;;;4.00;2.05;;;;;;;13.64;80.55;100168.75;2084023;28;20068;-72
2023/09/01 00:34:29;;;;;;;5.85;1.90;;;;;;;13.64;80.27;100170.66;2084018;28;20048;-72
2023/09/01 00:35:31;;;;;;;2.03;1.58;;;;;;;13.62;80.25;100157.47;2068409;28;20039;-72
2023/09/01 00:36:34;;;;;;;3.50;1.60;;;;;;;13.61;80.04;100160.47;2076402;28;20777;-72
2023/09/01 00:37:35;;;;;;;4.15;1.50;;;;;;;13.62;80.22;100162.09;2075792;28;20070;-72
2023/09/01 00:38:37;;;;;;;2.83;1.67;;;;;;;13.61;80.18;100158.56;2067977;28;20071;-72
2023/09/01 00:39:40;;;;;;;2.45;1.70;;;;;;;13.62;80.22;100162.88;2067598;28;20850;-72
2023/09/01 00:40:42;;;;;;;3.08;2.00;;;;;;;13.61;80.15;100166.66;2059827;28;20102;-72
2023/09/01 00:41:46;;;;;;;3.17;1.63;;;;;;;13.61;79.93;100161.25;2076176;28;20030;-72
2023/09/01 00:42:48;;;;;;;2.25;1.67;;;;;;;13.59;80.11;100160.78;2068360;28;20046;-72
2023/09/01 00:43:50;;;;;;;3.03;1.70;;;;;;;13.58;79.95;100161.09;2059650;28;20038;-72
2023/09/01 00:44:52;;;;;;;2.80;1.48;;;;;;;13.57;79.78;100157.59;2067729;28;20043;-72
2023/09/01 00:45:57;;;;;;;2.30;1.80;;;;;;;13.55;80.22;100151.69;2052673;28;20039;-72
2023/09/01 00:46:59;;;;;;;10.38;1.73;;;;;;;13.56;80.09;100158.72;2060666;28;20084;-72
2023/09/01 00:48:06;;;;;;;2.92;1.38;;;;;;;13.55;80.17;100154.38;2076167;28;20034;-72
2023/09/01 00:49:08;;;;;;;2.22;1.40;;;;;;;13.55;79.92;100159.00;2084837;28;20041;-72
2023/09/01 00:50:11;;;;;;;4.65;1.85;;;;;;;13.54;80.10;100160.13;2067683;28;20119;-72
2023/09/01 00:51:19;;;;;;;3.13;1.70;;;;;;;13.53;80.04;100158.53;2069521;28;20039;-72
2023/09/01 00:52:21;;;;;;;1.63;1.20;;;;;;;13.51;79.81;100156.13;2083646;28;20034;-72
2023/09/01 00:53:25;;;;;;;1.83;1.40;;;;;;;13.49;79.97;100155.63;2083640;28;20176;-72
2023/09/01 00:54:28;;;;;;;1.92;1.50;;;;;;;13.50;79.66;100153.75;2083797;28;20052;-72
2023/09/01 00:55:35;;;;;;;2.90;1.40;;;;;;;13.48;79.98;100156.72;2083594;28;20076;-72
2023/09/01 00:56:38;;;;;;;3.55;1.55;;;;;;;13.47;79.75;100160.53;2068020;28;20081;-72
2023/09/01 00:57:42;;;;;;;3.25;1.40;;;;;;;13.44;79.77;100158.47;2076309;28;20038;-72
2023/09/01 00:58:44;;;;;;;3.03;1.50;;;;;;;13.42;79.48;100155.25;2083929;28;20038;-72
2023/09/01 00:59:48;;;;;;;3.05;1.63;;;;;;;13.41;79.75;100156.38;2083941;28;20034;-72
2023/09/01 01:00:52;;;;;;;4.00;1.85;;;;;;;13.39;79.68;100153.16;2068238;28;20039;-72
2023/09/01 01:01:54;;;;;;;1.65;1.50;;;;;;;13.37;79.69;100147.28;2067477;28;21056;-71
2023/09/01 01:03:04;;;;;;;3.63;1.60;;;;;;;13.34;79.55;100151.41;2060283;28;20055;-71
2023/09/01 01:04:07;;;;;;;2.90;1.58;;;;;;;13.36;79.79;100148.38;2077169;28;20038;-71
2023/09/01 01:05:15;;;;;;;2.70;1.30;;;;;;;13.33;79.82;100149.78;2075574;28;20041;-71
2023/09/01 01:06:56;;;;;;;2.67;1.60;;;;;;;13.33;79.78;100157.88;2075942;28;20868;-72
2023/09/01 01:08:22;;;;;;;1.63;1.30;;;;;;;13.32;79.79;100150.91;2083063;28;20056;-72
2023/09/01 01:09:51;;;;;;;1.77;1.27;;;;;;;13.32;79.83;100152.81;2062485;28;20221;-72
2023/09/01 01:11:23;;;;;;;2.80;1.48;;;;;;;13.33;79.76;100154.41;2069495;28;20046;-72
2023/09/01 01:12:47;;;;;;;3.33;1.50;;;;;;;13.32;79.67;100166.31;2085903;28;20045;-72
2023/09/01 01:13:54;;;;;;;5.57;1.73;;;;;;;13.31;79.38;100151.22;2063170;28;20117;-72
2023/09/01 01:14:59;;;;;;;1.88;1.40;;;;;;;13.32;79.45;100150.09;2060231;28;20035;-72
2023/09/01 01:16:03;;;;;;;2.30;1.50;;;;;;;13.31;79.88;100156.63;2058464;28;20043;-72
2023/09/01 01:17:06;;;;;;;2.22;1.30;;;;;;;13.30;79.66;100161.19;2058427;28;20050;-72
2023/09/01 01:18:12;;;;;;;3.30;1.52;;;;;;;13.30;79.68;100160.41;2067177;28;20137;-72
2023/09/01 01:19:45;;;;;;;2.40;1.23;;;;;;;13.28;79.56;100162.63;2058242;28;20058;-72
2023/09/01 01:20:55;;;;;;;10.57;1.73;;;;;;;13.26;79.49;100159.44;2072501;28;20030;-72
2023/09/01 01:22:00;;;;;;;2.08;1.40;;;;;;;13.23;79.75;100164.28;2082544;28;21054;-71
2023/09/01 01:23:06;;;;;;;7.43;1.60;;;;;;;13.24;79.66;100159.72;2083222;28;20837;-72
2023/09/01 01:24:09;;;;;;;3.08;1.25;;;;;;;13.22;79.83;100165.41;2065956;28;20766;-72
2023/09/01 01:25:15;;;;;;;1.60;1.42;;;;;;;13.21;79.72;100171.91;2058881;28;20851;-72
2023/09/01 01:26:19;;;;;;;3.83;1.65;;;;;;;13.18;79.63;100161.72;2074911;28;20725;-72
2023/09/01 01:27:21;;;;;;;2.35;1.50;;;;;;;13.17;79.74;100165.50;2075009;28;20034;-72
2023/09/01 01:28:23;;;;;;;1.92;1.33;;;;;;;13.17;79.78;100162.81;2082172;28;20030;-71
2023/09/01 01:29:26;;;;;;;2.15;1.35;;;;;;;13.16;79.62;100166.63;2066316;28;20153;-72
2023/09/01 01:30:28;;;;;;;4.32;1.58;;;;;;;13.15;79.77;100158.84;2066501;28;20038;-71
2023/09/01 01:31:30;;;;;;;2.63;1.30;;;;;;;13.13;80.00;100161.84;2066368;28;20035;-72
2023/09/01 01:32:35;;;;;;;2.28;1.52;;;;;;;13.12;79.78;100156.75;2074712;28;20841;-72
2023/09/01 01:33:38;;;;;;;3.03;1.38;;;;;;;13.11;80.12;100157.84;2082431;28;20050;-72
2023/09/01 01:34:50;;;;;;;3.33;1.30;;;;;;;13.09;79.59;100154.66;2082610;28;20925;-72
2023/09/01 01:36:17;;;;;;;4.50;1.60;;;;;;;13.09;80.23;100151.97;2082849;28;20152;-71
2023/09/01 01:37:41;;;;;;;4.18;1.50;;;;;;;13.07;79.98;100146.06;2081997;28;20069;-72
2023/09/01 01:38:45;;;;;;;1.45;1.25;;;;;;;13.06;80.31;100139.88;2069033;28;20157;-73
2023/09/01 01:39:51;;;;;;;2.17;1.42;;;;;;;13.05;80.32;100138.28;2066728;28;20122;-72
2023/09/01 01:41:04;;;;;;;1.77;1.30;;;;;;;13.04;80.27;100139.38;2075832;28;20045;-72
2023/09/01 01:42:13;;;;;;;1.80;1.40;;;;;;;13.07;80.40;100146.06;2079614;28;20042;-72
2023/09/01 01:43:17;;;;;;;2.08;1.52;;;;;;;13.06;80.33;100142.56;2068733;28;20038;-72
2023/09/01 01:44:26;;;;;;;1.50;1.27;;;;;;;13.06;80.48;100144.47;2074951;28;20760;-72
2023/09/01 01:45:29;;;;;;;3.27;1.53;;;;;;;13.06;80.41;100147.97;2075360;28;20043;-72
2023/09/01 01:46:32;;;;;;;2.55;1.50;;;;;;;13.05;80.62;100146.38;2074252;28;20234;-72
2023/09/01 01:47:35;;;;;;;2.80;1.40;;;;;;;13.07;80.63;100152.25;2082660;28;20033;-72
2023/09/01 01:48:37;;;;;;;1.67;1.33;;;;;;;13.06;80.77;100160.69;2090363;28;20791;-72
2023/09/01 01:49:39;;;;;;;3.22;1.73;;;;;;;13.06;80.74;100145.28;2082455;28;20041;-72
2023/09/01 01:50:42;;;;;;;5.07;1.40;;;;;;;13.07;80.80;100160.34;2073862;28;20049;-72
2023/09/01 01:51:44;;;;;;;2.28;1.10;;;;;;;13.08;80.80;100155.75;2069814;28;20047;-72
2023/09/01 01:52:45;;;;;;;3.38;1.65;;;;;;;13.06;80.84;100161.47;2066129;28;20041;-72
2023/09/01 01:53:47;;;;;;;2.58;1.30;;;;;;;13.08;80.76;100159.28;2065906;28;20049;-72
2023/09/01 01:54:51;;;;;;;1.48;1.38;;;;;;;13.08;80.80;100161.97;2066806;28;20062;-72
2023/09/01 01:55:53;;;;;;;1.70;1.38;;;;;;;13.10;80.96;100167.84;2057587;28;20703;-71
2023/09/01 01:56:56;;;;;;;4.75;1.52;;;;;;;13.10;80.80;100167.84;2050340;28;20036;-72
2023/09/01 01:57:58;;;;;;;2.05;1.65;;;;;;;13.11;80.86;100174.84;2074256;28;20900;-72
2023/09/01 01:59:00;;;;;;;2.85;1.40;;;;;;;13.12;81.06;100176.44;2082398;28;20040;-72
2023/09/01 02:00:02;;;;;;;3.58;1.40;;;;;;;13.12;80.81;100170.25;2057672;28;20750;-71
2023/09/01 02:01:14;;;;;;;2.22;1.45;;;;;;;13.12;80.94;100181.06;2052849;28;20039;-72
2023/09/01 02:02:16;;;;;;;2.00;1.38;;;;;;;13.12;81.06;100178.34;2057788;28;20045;-72
2023/09/01 02:03:18;;;;;;;3.85;1.33;;;;;;;13.12;80.83;100178.34;2057881;28;20107;-72
2023/09/01 02:04:23;;;;;;;4.13;1.50;;;;;;;13.12;80.81;100184.53;2066485;28;20065;-72
2023/09/01 02:05:25;;;;;;;1.90;1.40;;;;;;;13.13;80.74;100172.63;2065957;28;20043;-72
2023/09/01 02:06:28;;;;;;;1.83;1.42;;;;;;;13.13;80.72;100169.16;2058109;28;20031;-72
2023/09/01 02:07:32;;;;;;;2.03;1.60;;;;;;;13.14;80.83;100178.81;2057622;28;20166;-72
2023/09/01 02:08:34;;;;;;;2.88;1.70;;;;;;;13.13;80.67;100172.63;2070494;28;20040;-72
2023/09/01 02:09:38;;;;;;;4.82;1.60;;;;;;;13.12;80.75;100168.34;2073693;28;20057;-72
2023/09/01 02:10:42;;;;;;;2.72;1.50;;;;;;;13.13;80.69;100178.03;2074912;28;20917;-72
2023/09/01 02:11:47;;;;;;;1.65;1.40;;;;;;;13.14;80.88;100185.03;2073576;28;20957;-71
2023/09/01 02:12:49;;;;;;;2.85;1.77;;;;;;;13.14;80.97;100179.63;2074031;28;20037;-72
2023/09/01 02:13:51;;;;;;;4.00;1.70;;;;;;;13.15;80.58;100185.84;2065738;28;20039;-72
2023/09/01 02:14:55;;;;;;;3.47;1.60;;;;;;;13.16;81.07;100190.13;2065106;28;20030;-71
2023/09/01 02:15:58;;;;;;;5.15;1.70;;;;;;;13.16;80.66;100188.22;2056648;28;20846;-72
2023/09/01 02:17:00;;;;;;;2.75;1.58;;;;;;;13.16;80.55;100190.94;2064972;28;20035;-72
2023/09/01 02:18:04;;;;;;;1.75;1.55;;;;;;;13.16;80.76;100196.31;2072559;28;20078;-72
2023/09/01 02:19:09;;;;;;;5.93;1.98;;;;;;;13.16;80.85;100196.31;2072562;28;20742;-71
2023/09/01 02:20:20;;;;;;;4.13;1.67;;;;;;;13.15;80.86;100189.34;2073115;28;20037;-72
2023/09/01 02:21:23;;;;;;;2.85;1.70;;;;;;;13.15;81.00;100193.94;2072538;28;20122;-72
2023/09/01 02:22:25;;;;;;;3.33;2.22;;;;;;;13.14;80.91;100190.41;2071753;28;20042;-72
2023/09/01 02:23:29;;;;;;;3.00;1.80;;;;;;;13.14;80.91;100189.63;2072743;28;20128;-72
2023/09/01 02:24:31;;;;;;;2.05;1.60;;;;;;;13.14;81.05;100195.81;2064375;28;20031;-72
2023/09/01 02:25:52;;;;;;;2.53;1.60;;;;;;;13.15;80.90;100192.03;2041026;28;20040;-72
2023/09/01 02:26:56;;;;;;;3.53;2.03;;;;;;;13.15;81.08;100181.25;2061662;28;20739;-72
2023/09/01 02:28:04;;;;;;;2.72;1.80;;;;;;;13.14;80.98;100185.03;2065656;28;20045;-72
2023/09/01 02:29:06;;;;;;;2.85;1.80;;;;;;;13.12;80.87;100189.94;2080254;28;20037;-72
2023/09/01 02:30:28;;;;;;;4.30;1.70;;;;;;;13.12;80.99;100183.75;2072771;28;20795;-72
2023/09/01 02:31:30;;;;;;;4.28;2.10;;;;;;;13.13;80.86;100190.75;2071148;28;20881;-73
2023/09/01 02:32:34;;;;;;;2.50;1.90;;;;;;;13.12;80.85;100189.94;2064335;28;20038;-72
2023/09/01 02:33:38;;;;;;;3.10;1.95;;;;;;;13.12;81.11;100181.06;2064889;28;20037;-72
2023/09/01 02:34:42;;;;;;;4.68;2.05;;;;;;;13.12;81.06;100187.25;2072066;28;20042;-72
2023/09/01 02:35:44;;;;;;;4.30;2.10;;;;;;;13.10;81.17;100184.03;2056668;28;21161;-72
2023/09/01 02:36:49;;;;;;;2.85;2.17;;;;;;;13.12;81.27;100191.84;2072151;28;20124;-72
2023/09/01 02:37:51;;;;;;;2.58;2.13;;;;;;;13.11;81.31;100191.03;2072574;28;20869;-72
2023/09/01 02:38:57;;;;;;;9.63;2.45;;;;;;;13.10;81.32;100184.03;2072992;28;20845;-72
2023/09/01 02:40:10;;;;;;;2.80;2.17;;;;;;;13.10;81.41;100186.75;2072717;28;20030;-72
2023/09/01 02:41:12;;;;;;;7.00;2.40;;;;;;;13.11;81.42;100185.63;2057644;28;20036;-72
2023/09/01 02:42:17;;;;;;;3.45;2.40;;;;;;;13.12;81.60;100181.06;2064594;28;20727;-72
2023/09/01 02:43:24;;;;;;;4.18;2.20;;;;;;;13.10;81.52;100185.94;2064086;28;20976;-72
2023/09/01 02:44:28;;;;;;;4.15;2.30;;;;;;;13.11;81.75;100188.31;2056892;28;20109;-72
2023/09/01 02:45:31;;;;;;;3.85;2.58;;;;;;;13.09;81.85;100177.06;2066183;28;20105;-72
2023/09/01 02:46:32;;;;;;;2.55;2.20;;;;;;;13.10;81.77;100181.34;2057186;28;20035;-71
2023/09/01 02:47:35;;;;;;;4.45;2.83;;;;;;;13.09;82.11;100177.06;2065288;28;20037;-72
2023/09/01 02:48:38;;;;;;;4.38;2.63;;;;;;;13.09;82.16;100176.25;2073149;28;20093;-72
2023/09/01 02:49:41;;;;;;;4.00;2.45;;;;;;;13.07;81.92;100173.84;2064760;28;20039;-72
2023/09/01 02:50:45;;;;;;;5.35;2.67;;;;;;;13.06;82.10;100174.97;2066216;28;20038;-72
2023/09/01 02:51:50;;;;;;;4.53;2.85;;;;;;;13.05;82.20;100176.06;2068899;28;20110;-72
2023/09/01 02:52:52;;;;;;;3.22;2.40;;;;;;;13.05;82.20;100177.94;2058181;28;20049;-71
2023/09/01 02:53:53;;;;;;;4.32;2.70;;;;;;;13.05;82.29;100180.66;2073898;28;20099;-72
2023/09/01 02:54:55;;;;;;;4.78;2.70;;;;;;;13.03;82.26;100172.88;2057497;28;20039;-72
2023/09/01 02:55:58;;;;;;;4.10;2.70;;;;;;;13.04;82.54;100179.06;2059076;28;20051;-71
2023/09/01 02:57:00;;;;;;;5.15;3.63;;;;;;;13.02;82.67;100176.69;2065584;28;20836;-72
2023/09/01 02:58:02;;;;;;;3.85;3.20;;;;;;;13.02;82.63;100187.47;2065570;28;20811;-72
2023/09/01 02:59:09;;;;;;;5.20;3.00;;;;;;;13.03;82.59;100182.88;2065405;28;20109;-72
2023/09/01 03:00:17;;;;;;;4.78;3.00;;;;;;;13.02;82.91;100173.97;2058133;28;20036;-71
2023/09/01 03:01:19;;;;;;;5.00;3.15;;;;;;;13.02;83.01;100176.69;2057521;28;20043;-71
2023/09/01 03:02:21;;;;;;;4.28;2.88;;;;;;;13.02;83.40;100173.97;2049175;28;20484;-72
2023/09/01 03:03:23;;;;;;;8.38;3.20;;;;;;;13.01;83.62;100169.66;2066045;28;20049;-72
2023/09/01 03:04:30;;;;;;;4.20;2.90;;;;;;;13.01;83.66;100172.38;2065406;28;20103;-72
2023/09/01 03:05:32;;;;;;;4.20;3.28;;;;;;;13.00;83.61;100173.47;2066384;28;20265;-72
2023/09/01 03:06:35;;;;;;;4.63;3.47;;;;;;;12.99;83.33;100171.91;2057322;28;20035;-71
2023/09/01 03:07:38;;;;;;;4.70;2.92;;;;;;;13.00;83.51;100168.09;2066089;28;20035;-72
2023/09/01 03:08:42;;;;;;;3.83;3.05;;;;;;;13.01;83.63;100169.66;2077682;28;20041;-72
2023/09/01 03:09:44;;;;;;;4.78;2.95;;;;;;;12.98;83.80;100165.66;2065941;28;20045;-72
2023/09/01 03:10:47;;;;;;;5.97;3.20;;;;;;;13.01;83.68;100168.88;2065698;28;20141;-72
2023/09/01 03:11:49;;;;;;;5.53;3.15;;;;;;;13.00;83.63;100165.38;2065729;28;20063;-72
2023/09/01 03:12:53;;;;;;;4.05;3.20;;;;;;;13.01;83.67;100163.47;2065964;28;20039;-72
2023/09/01 03:13:55;;;;;;;7.53;3.55;;;;;;;13.00;83.83;100176.19;2065403;28;20889;-72
2023/09/01 03:14:57;;;;;;;3.63;2.80;;;;;;;12.99;83.90;100161.09;2073892;28;20912;-72
2023/09/01 03:16:04;;;;;;;6.65;3.45;;;;;;;12.98;84.04;100167.56;2081977;28;20067;-72
2023/09/01 03:17:11;;;;;;;5.55;3.28;;;;;;;12.99;83.86;100180.00;2081352;28;20022;-72
2023/09/01 03:18:14;;;;;;;3.88;3.03;;;;;;;12.99;83.79;100180.78;2065291;28;20126;-72
2023/09/01 03:19:15;;;;;;;7.88;3.08;;;;;;;12.98;83.79;100176.47;2058000;28;20031;-72
2023/09/01 03:20:18;;;;;;;4.85;2.90;;;;;;;12.97;84.11;100174.88;2073986;28;20156;-72
2023/09/01 03:21:22;;;;;;;7.60;3.20;;;;;;;12.98;83.97;100171.06;2072920;28;20041;-71
2023/09/01 03:22:26;;;;;;;4.03;3.05;;;;;;;13.00;83.88;100173.47;2057844;28;20085;-71
2023/09/01 03:23:33;;;;;;;4.38;3.05;;;;;;;13.01;84.09;100169.66;2050807;28;20111;-72
2023/09/01 03:24:37;;;;;;;6.03;3.03;;;;;;;13.02;83.92;100168.59;2067346;28;20059;-72
2023/09/01 03:25:41;;;;;;;4.80;3.20;;;;;;;13.02;84.09;100165.88;2065178;28;20043;-72
2023/09/01 03:26:45;;;;;;;5.68;2.88;;;;;;;13.02;84.01;100165.06;2065651;28;20112;-72
2023/09/01 03:27:50;;;;;;;3.72;2.67;;;;;;;13.03;84.05;100169.38;2066343;28;20039;-71
2023/09/01 03:28:52;;;;;;;4.55;3.08;;;;;;;13.04;84.09;100169.06;2057454;28;20047;-72
2023/09/01 03:29:57;;;;;;;4.88;3.08;;;;;;;13.04;83.96;100170.97;2041544;28;20044;-72
2023/09/01 03:31:08;;;;;;;5.05;3.45;;;;;;;13.04;84.03;100169.06;2052050;28;20039;-72
2023/09/01 03:32:12;;;;;;;3.92;2.97;;;;;;;13.04;84.13;100163.66;2058828;28;20027;-72
2023/09/01 03:33:13;;;;;;;6.38;3.20;;;;;;;13.03;83.70;100164.78;2058166;28;20039;-71
2023/09/01 03:34:16;;;;;;;5.53;2.70;;;;;;;13.03;83.86;100170.19;2056999;28;20039;-72
2023/09/01 03:35:19;;;;;;;4.63;2.95;;;;;;;13.04;83.89;100162.88;2049654;28;20039;-72
2023/09/01 03:36:20;;;;;;;5.68;3.00;;;;;;;13.02;83.64;100165.88;2057636;28;20157;-72
2023/09/01 03:37:26;;;;;;;6.95;2.88;;;;;;;13.03;84.01;100164.78;2065680;28;20038;-71
2023/09/01 03:38:28;;;;;;;4.43;2.70;;;;;;;13.03;83.96;100170.19;2073638;28;20773;-71
2023/09/01 03:39:30;;;;;;;4.10;3.05;;;;;;;13.04;83.91;100163.66;2065399;28;20150;-72
2023/09/01 03:40:32;;;;;;;4.32;2.85;;;;;;;13.05;83.93;100169.84;2073665;28;20113;-72
2023/09/01 03:41:38;;;;;;;3.72;2.80;;;;;;;13.06;83.79;100172.25;2073302;28;20753;-72
2023/09/01 03:42:40;;;;;;;4.53;3.00;;;;;;;13.04;83.82;100169.06;2066513;28;20858;-72
2023/09/01 03:43:42;;;;;;;3.90;2.78;;;;;;;13.04;84.18;100169.06;2057366;28;20046;-71
2023/09/01 03:44:44;;;;;;;3.38;2.72;;;;;;;13.03;84.14;100166.69;2065701;28;20077;-71
2023/09/01 03:45:46;;;;;;;3.63;2.78;;;;;;;13.02;84.09;100176.69;2073407;28;20030;-72
2023/09/01 03:46:48;;;;;;;4.03;3.00;;;;;;;13.04;83.98;100163.66;2073470;28;20030;-71
2023/09/01 03:47:52;;;;;;;5.47;2.95;;;;;;;13.04;84.04;100168.28;2057500;28;20039;-71
2023/09/01 03:48:55;;;;;;;4.28;3.03;;;;;;;13.03;84.04;100164.78;2050184;28;20858;-72
2023/09/01 03:49:57;;;;;;;6.68;2.72;;;;;;;13.03;83.79;100178.28;2065749;28;20041;-71
2023/09/01 03:51:11;;;;;;;3.83;2.80;;;;;;;13.00;83.88;100165.38;2057129;28;20900;-72
2023/09/01 03:52:14;;;;;;;4.15;2.70;;;;;;;13.01;83.86;100169.66;2054951;28;20171;-72
2023/09/01 03:53:16;;;;;;;5.90;3.03;;;;;;;13.01;83.70;100175.06;2065372;28;20838;-72
2023/09/01 03:54:23;;;;;;;3.78;2.53;;;;;;;13.00;83.76;100162.69;2057836;28;20043;-72
2023/09/01 03:55:26;;;;;;;4.95;3.20;;;;;;;12.98;83.65;100162.97;2058140;28;20035;-72
2023/09/01 03:56:28;;;;;;;5.75;2.85;;;;;;;12.99;83.90;100156.50;2068379;28;20237;-72
2023/09/01 03:57:35;;;;;;;4.03;2.90;;;;;;;13.00;83.73;100162.69;2072973;28;20127;-72
2023/09/01 03:58:40;;;;;;;4.32;2.80;;;;;;;13.00;83.67;100162.69;2066030;28;20093;-72
2023/09/01 03:59:41;;;;;;;3.45;2.70;;;;;;;13.01;83.87;100175.06;2065444;28;20046;-72
2023/09/01 04:00:43;;;;;;;6.55;3.00;;;;;;;12.97;83.79;100163.28;2065095;28;20073;-72
2023/09/01 04:01:45;;;;;;;5.93;3.00;;;;;;;12.97;83.87;100163.28;2073610;28;20050;-72
2023/09/01 04:02:47;;;;;;;4.18;2.90;;;;;;;12.97;83.92;100163.28;2073291;28;20046;-71
2023/09/01 04:03:49;;;;;;;3.58;2.70;;;;;;;12.97;84.07;100158.69;2073625;28;20055;-71
2023/09/01 04:04:56;;;;;;;3.97;2.72;;;;;;;12.98;83.71;100159.47;2073257;28;20031;-70
2023/09/01 04:05:58;;;;;;;5.07;3.00;;;;;;;12.97;83.47;100153.28;2084416;28;20140;-70
2023/09/01 04:07:03;;;;;;;4.40;2.70;;;;;;;12.98;83.77;100160.28;2098099;28;20033;-70
2023/09/01 04:08:05;;;;;;;5.03;2.70;;;;;;;12.97;83.71;100157.91;2080774;28;20886;-71
2023/09/01 04:09:09;;;;;;;4.05;2.85;;;;;;;12.98;83.59;100159.47;2065420;28;20047;-71
2023/09/01 04:10:13;;;;;;;3.45;2.40;;;;;;;12.96;83.74;100150.91;2065876;28;20070;-71
2023/09/01 04:11:15;;;;;;;4.18;2.83;;;;;;;12.97;83.56;100163.28;2073350;28;20042;-71
2023/09/01 04:12:17;;;;;;;3.42;2.70;;;;;;;12.96;83.42;100161.69;2089827;28;20026;-71
2023/09/01 04:13:21;;;;;;;5.80;3.40;;;;;;;12.95;83.63;100166.28;2080728;28;20046;-71
2023/09/01 04:14:25;;;;;;;5.25;3.22;;;;;;;12.94;83.44;100158.50;2073696;28;20065;-71
2023/09/01 04:15:26;;;;;;;5.20;3.20;;;;;;;12.94;83.49;100166.59;2064974;28;20042;-71
2023/09/01 04:16:29;;;;;;;4.25;3.05;;;;;;;12.92;83.32;100155.28;2074007;28;20804;-71
2023/09/01 04:17:31;;;;;;;3.80;2.90;;;;;;;12.93;83.20;100156.91;2089039;28;20084;-71
2023/09/01 04:18:35;;;;;;;4.05;2.80;;;;;;;12.92;83.63;100163.41;2073336;28;20042;-69
2023/09/01 04:19:37;;;;;;;4.13;2.45;;;;;;;12.92;83.60;100160.69;2081251;28;20034;-70
2023/09/01 04:20:39;;;;;;;4.75;2.92;;;;;;;12.92;83.21;100166.09;2081473;28;20068;-71
2023/09/01 04:21:41;;;;;;;3.17;2.80;;;;;;;12.92;83.56;100149.91;2073248;28;20137;-71
2023/09/01 04:22:44;;;;;;;4.20;2.70;;;;;;;12.92;83.41;100158.78;2065285;28;20038;-71
2023/09/01 04:23:46;;;;;;;5.32;2.60;;;;;;;12.93;83.57;100157.72;2056998;28;20032;-71
2023/09/01 04:24:52;;;;;;;4.03;2.92;;;;;;;12.94;83.64;100161.19;2073746;28;20034;-71
2023/09/01 04:25:56;;;;;;;3.55;2.50;;;;;;;12.95;83.68;100162.78;2073408;28;20046;-71
2023/09/01 04:27:02;;;;;;;4.10;3.17;;;;;;;12.96;83.58;100167.09;2082599;28;20128;-71
2023/09/01 04:28:04;;;;;;;4.63;2.70;;;;;;;12.95;83.68;100168.19;2081536;28;20041;-70
2023/09/01 04:29:09;;;;;;;4.18;3.00;;;;;;;12.95;83.63;100155.47;2075856;28;20960;-71
2023/09/01 04:30:12;;;;;;;3.33;2.67;;;;;;;12.97;83.37;100174.09;2070417;28;20793;-71
2023/09/01 04:31:30;;;;;;;3.22;2.63;;;;;;;12.97;83.52;100166.78;2068603;28;20038;-69
2023/09/01 04:32:34;;;;;;;3.90;2.65;;;;;;;12.98;83.44;100159.47;2068118;28;20058;-69
2023/09/01 04:33:36;;;;;;;2.95;2.58;;;;;;;12.98;83.59;100164.88;2072230;28;20090;-69
2023/09/01 04:34:38;;;;;;;4.68;2.70;;;;;;;12.99;83.57;100171.91;2069855;28;20034;-71
2023/09/01 04:35:50;;;;;;;4.63;2.63;;;;;;;12.99;83.70;100171.91;2064657;28;20141;-72
2023/09/01 04:36:51;;;;;;;3.53;2.90;;;;;;;13.00;83.46;100176.19;2074172;28;21326;-71
2023/09/01 04:37:54;;;;;;;5.85;3.08;;;;;;;13.02;83.84;100176.69;2071807;28;20049;-72
2023/09/01 04:38:56;;;;;;;5.38;2.75;;;;;;;13.03;83.74;100174.78;2069976;28;20084;-71
2023/09/01 04:39:59;;;;;;;4.00;2.70;;;;;;;13.03;83.31;100167.47;2080268;28;20049;-71
2023/09/01 04:41:00;;;;;;;3.75;2.78;;;;;;;13.04;83.57;100171.75;2064152;28;20079;-71
2023/09/01 04:42:05;;;;;;;7.07;2.80;;;;;;;13.08;83.71;100175.47;2073335;28;20038;-71
2023/09/01 04:43:10;;;;;;;4.32;2.88;;;;;;;13.10;83.61;100172.44;2095784;28;20768;-71
2023/09/01 04:44:13;;;;;;;3.85;3.20;;;;;;;13.12;83.71;100170.25;2071649;28;20045;-71
2023/09/01 04:45:15;;;;;;;4.28;3.08;;;;;;;13.13;83.55;100169.16;2064160;28;20782;-72
2023/09/01 04:46:18;;;;;;;5.15;2.80;;;;;;;13.16;83.62;100171.22;2056269;28;20070;-71
2023/09/01 04:47:20;;;;;;;5.32;2.78;;;;;;;13.16;83.58;100172.03;2057215;28;20039;-71
2023/09/01 04:48:25;;;;;;;3.88;2.60;;;;;;;13.20;83.52;100174.91;2063126;28;20125;-72
2023/09/01 04:49:30;;;;;;;4.15;3.00;;;;;;;13.22;83.57;100170.03;2067073;28;20042;-69
2023/09/01 04:50:31;;;;;;;3.75;2.70;;;;;;;13.26;83.45;100168.31;2081269;28;20064;-70
2023/09/01 04:51:36;;;;;;;4.93;2.78;;;;;;;13.28;83.39;100176.13;2069526;28;20755;-71
2023/09/01 04:52:38;;;;;;;4.95;2.80;;;;;;;13.31;83.20;100168.22;2057901;28;20043;-72
2023/09/01 04:53:44;;;;;;;5.00;2.70;;;;;;;13.35;83.17;100169.19;2073289;28;20030;-73
2023/09/01 04:54:49;;;;;;;4.47;2.80;;;;;;;13.39;83.10;100169.38;2073261;28;21059;-73
2023/09/01 04:55:51;;;;;;;3.60;2.65;;;;;;;13.43;82.98;100171.16;2064886;28;20778;-73
2023/09/01 04:56:54;;;;;;;5.95;2.80;;;;;;;13.48;83.10;100170.22;2065235;28;20740;-70
2023/09/01 04:57:59;;;;;;;5.32;2.50;;;;;;;13.51;82.94;100166.91;2081655;28;20052;-73
2023/09/01 04:59:04;;;;;;;3.05;2.50;;;;;;;13.54;82.69;100166.31;2073132;28;20069;-72
2023/09/01 05:00:15;;;;;;;4.60;3.08;;;;;;;13.60;82.38;100173.19;2065371;28;20038;-73
2023/09/01 05:01:21;;;;;;;4.45;2.78;;;;;;;13.65;82.73;100167.66;2073077;28;20868;-73